createdAt,value
2016-11-17T10:12:55.339Z,4620
2016-11-17T10:13:20.865Z,4472
2016-11-17T10:13:46.504Z,2892
2016-11-17T10:14:12.062Z,3088
2016-11-17T10:14:37.635Z,3172
2016-11-17T10:15:03.535Z,3220
2016-11-17T10:15:29.154Z,3204
2016-11-17T10:15:54.760Z,2968
2016-11-17T10:16:20.296Z,2952
2016-11-17T10:16:45.934Z,2764
2016-11-17T10:17:11.539Z,2924
2016-11-17T10:18:20.416Z,3364
2016-11-17T10:20:27.670Z,3940
2016-11-17T10:20:53.212Z,4052
2016-11-17T10:21:18.822Z,4200
2016-11-17T10:21:44.560Z,4280
2016-11-17T10:22:10.114Z,4276
2016-11-17T10:22:35.829Z,4332
2016-11-17T10:23:01.271Z,4376
2016-11-17T10:23:26.886Z,4452
2016-11-17T10:23:52.569Z,4584
2016-11-17T10:24:18.001Z,4704
2016-11-17T10:24:43.702Z,5084
2016-11-17T10:25:09.257Z,6496
2016-11-17T10:25:34.827Z,5368
2016-11-17T10:26:00.365Z,4148
2016-11-17T10:26:26.024Z,4512
2016-11-17T10:26:51.583Z,4436
2016-11-17T10:27:17.143Z,4400
2016-11-17T10:27:42.806Z,4708
2016-11-17T10:28:08.367Z,4904
2016-11-17T10:28:33.967Z,4948
2016-11-17T10:28:59.685Z,5028
2016-11-17T10:29:25.242Z,5020
2016-11-17T10:29:50.793Z,5024
2016-11-17T10:30:16.474Z,5096
2016-11-17T10:30:42.296Z,5080
2016-11-17T10:31:07.927Z,4988
2016-11-17T10:31:33.484Z,4948
2016-11-17T10:31:59.080Z,4920
2016-11-17T10:32:24.664Z,4764
2016-11-17T10:32:50.193Z,4564
2016-11-17T10:33:15.892Z,4388
2016-11-17T10:33:41.493Z,4200
2016-11-17T10:34:07.043Z,4040
2016-11-17T10:34:32.596Z,4004
2016-11-17T10:34:58.683Z,4020
2016-11-17T10:35:23.892Z,3984
2016-11-17T10:35:49.456Z,4000
2016-11-17T10:36:15.140Z,4108
2016-11-17T10:36:40.724Z,4340
2016-11-17T10:37:06.292Z,4632
2016-11-17T10:37:31.881Z,4680
2016-11-17T10:37:57.563Z,4540
2016-11-17T10:38:23.132Z,4304
2016-11-17T10:38:48.702Z,4088
2016-11-17T10:39:14.346Z,3900
2016-11-17T10:39:39.908Z,3760
2016-11-17T10:40:05.724Z,3636
2016-11-17T10:40:31.291Z,3496
2016-11-17T10:40:56.904Z,3392
2016-11-17T10:41:22.444Z,3308
2016-11-17T10:41:48.076Z,3188
2016-11-17T10:42:13.634Z,3016
2016-11-17T10:42:39.209Z,2828
2016-11-17T10:43:04.787Z,2656
2016-11-17T10:43:30.356Z,2488
2016-11-17T10:43:55.936Z,2320
2016-11-17T10:44:21.495Z,2196
2016-11-17T10:44:47.134Z,2120
2016-11-17T10:45:12.720Z,2092
2016-11-17T10:46:21.304Z,1988
2016-11-17T10:46:46.910Z,1916
2016-11-17T10:47:12.468Z,1856
2016-11-17T10:47:38.091Z,1816
2016-11-17T10:48:03.636Z,1772
2016-11-17T10:48:29.238Z,1736
2016-11-17T10:48:54.806Z,1684
2016-11-17T10:49:20.406Z,1632
2016-11-17T10:49:45.987Z,1592
2016-11-17T10:50:11.549Z,1588
2016-11-17T10:50:37.237Z,1612
2016-11-17T10:51:02.885Z,1656
2016-11-17T10:51:28.489Z,1700
2016-11-17T10:51:54.048Z,1696
2016-11-17T10:52:19.606Z,1680
2016-11-17T10:52:45.174Z,1644
2016-11-17T10:53:10.744Z,1616
2016-11-17T10:53:36.472Z,1604
2016-11-17T10:54:02.171Z,1596
2016-11-17T10:54:27.716Z,1596
2016-11-17T10:54:53.284Z,1600
2016-11-17T10:55:18.850Z,1616
2016-11-17T10:55:44.411Z,1648
2016-11-17T10:56:10.067Z,1720
2016-11-17T10:56:35.699Z,1860
2016-11-17T10:57:01.263Z,2064
2016-11-17T10:57:26.834Z,2260
2016-11-17T10:57:52.527Z,2348
2016-11-17T10:58:18.104Z,2308
2016-11-17T10:58:43.678Z,2196
2016-11-17T10:59:09.238Z,2032
2016-11-17T10:59:34.805Z,1860
2016-11-17T11:00:00.369Z,1720
2016-11-17T11:00:25.927Z,1600
2016-11-17T11:00:51.558Z,1496
2016-11-17T11:01:17.085Z,1420
2016-11-17T11:01:42.658Z,1360
2016-11-17T11:02:08.226Z,1324
2016-11-17T11:02:33.815Z,1324
2016-11-17T11:02:59.570Z,1396
2016-11-17T11:03:25.221Z,1508
2016-11-17T11:03:50.818Z,1664
2016-11-17T11:04:16.416Z,1860
2016-11-17T11:04:41.961Z,1984
2016-11-17T11:05:08.426Z,2064
2016-11-17T11:05:33.983Z,2092
2016-11-17T11:05:59.549Z,2052
2016-11-17T11:06:25.206Z,1980
2016-11-17T11:06:50.686Z,1912
2016-11-17T11:07:16.245Z,1860
2016-11-17T11:07:41.796Z,1848
2016-11-17T11:08:07.378Z,1832
2016-11-17T11:08:32.938Z,1804
2016-11-17T11:08:58.671Z,1740
2016-11-17T11:09:24.231Z,1676
2016-11-17T11:09:49.799Z,1620
2016-11-17T11:10:15.427Z,1584
2016-11-17T11:10:41.038Z,1564
2016-11-17T11:11:06.609Z,1556
2016-11-17T11:11:32.332Z,1580
2016-11-17T11:11:57.895Z,1636
2016-11-17T11:12:23.529Z,1696
2016-11-17T11:12:49.090Z,1752
2016-11-17T11:13:14.642Z,1780
2016-11-17T11:13:40.201Z,1772
2016-11-17T11:14:05.993Z,1732
2016-11-17T11:14:31.559Z,1696
2016-11-17T11:14:57.081Z,1684
2016-11-17T11:15:22.679Z,1688
2016-11-17T11:15:48.270Z,1712
2016-11-17T11:16:13.878Z,1732
2016-11-17T11:16:39.539Z,1752
2016-11-17T11:17:05.084Z,1816
2016-11-17T11:17:30.672Z,1900
2016-11-17T11:17:56.263Z,1996
2016-11-17T11:18:21.832Z,2092
2016-11-17T11:18:47.479Z,2160
2016-11-17T11:19:13.051Z,2188
2016-11-17T11:19:38.660Z,2180
2016-11-17T11:20:04.191Z,2188
2016-11-17T11:20:29.848Z,2208
2016-11-17T11:20:55.474Z,2232
2016-11-17T11:21:21.093Z,2252
2016-11-17T11:21:46.731Z,2248
2016-11-17T11:22:12.302Z,2236
2016-11-17T11:22:37.838Z,2228
2016-11-17T11:23:03.526Z,2236
2016-11-17T11:23:29.101Z,2252
2016-11-17T11:23:54.770Z,2280
2016-11-17T11:24:20.310Z,2328
2016-11-17T11:24:45.916Z,2444
2016-11-17T11:25:11.498Z,2672
2016-11-17T11:25:37.043Z,3048
2016-11-17T11:26:02.805Z,3408
2016-11-17T11:26:28.362Z,3660
2016-11-17T11:26:53.947Z,3828
2016-11-17T11:27:19.591Z,3964
2016-11-17T11:27:45.159Z,4156
2016-11-17T11:28:10.762Z,4340
2016-11-17T11:28:36.314Z,4464
2016-11-17T11:29:01.922Z,4440
2016-11-17T11:29:27.472Z,4200
2016-11-17T11:29:53.031Z,3964
2016-11-17T11:30:18.694Z,3704
2016-11-17T11:30:44.267Z,3300
2016-11-17T11:31:09.823Z,2952
2016-11-17T11:31:35.465Z,2768
2016-11-17T11:32:01.058Z,2672
2016-11-17T11:32:26.655Z,2608
2016-11-17T11:32:52.354Z,2528
2016-11-17T11:33:17.969Z,2432
2016-11-17T11:33:43.540Z,2320
2016-11-17T11:34:09.114Z,2252
2016-11-17T11:34:34.741Z,2244
2016-11-17T11:35:00.281Z,2276
2016-11-17T11:35:25.821Z,2408
2016-11-17T11:35:51.566Z,2592
2016-11-17T11:36:17.154Z,2684
2016-11-17T11:36:42.724Z,2688
2016-11-17T11:37:08.377Z,2680
2016-11-17T11:37:34.035Z,2644
2016-11-17T11:37:59.769Z,2576
2016-11-17T11:38:25.329Z,2572
2016-11-17T11:38:50.865Z,2696
2016-11-17T11:39:16.488Z,2904
2016-11-17T11:39:42.071Z,3060
2016-11-17T11:40:07.641Z,3140
2016-11-17T11:40:33.219Z,3128
2016-11-17T11:40:58.883Z,3084
2016-11-17T11:41:24.465Z,3028
2016-11-17T11:41:50.175Z,3016
2016-11-17T11:42:15.838Z,3028
2016-11-17T11:42:41.409Z,3060
2016-11-17T11:43:07.043Z,3076
2016-11-17T11:43:32.609Z,3044
2016-11-17T11:43:58.182Z,2900
2016-11-17T11:44:23.814Z,2712
2016-11-17T11:44:49.379Z,2548
2016-11-17T11:45:14.949Z,2420
2016-11-17T11:45:40.490Z,2288
2016-11-17T11:46:06.208Z,2128
2016-11-17T11:46:31.824Z,1992
2016-11-17T11:46:57.358Z,1916
2016-11-17T11:47:22.914Z,1820
2016-11-17T11:47:48.635Z,1740
2016-11-17T11:48:14.223Z,1724
2016-11-17T11:48:39.767Z,1768
2016-11-17T11:49:05.360Z,1880
2016-11-17T11:49:31.032Z,1984
2016-11-17T11:49:56.576Z,2044
2016-11-17T11:50:22.166Z,2084
2016-11-17T11:50:47.805Z,2200
2016-11-17T11:51:13.414Z,2408
2016-11-17T11:51:39.072Z,2688
2016-11-17T11:52:04.654Z,2936
2016-11-17T11:52:30.268Z,3104
2016-11-17T11:52:55.845Z,3324
2016-11-17T11:53:21.433Z,3772
2016-11-17T11:53:47.048Z,4536
2016-11-17T11:54:12.588Z,5428
2016-11-17T11:54:38.186Z,6184
2016-11-17T11:55:03.728Z,6768
2016-11-17T11:55:29.319Z,7184
2016-11-17T11:55:54.888Z,7292
2016-11-17T11:56:20.620Z,6936
2016-11-17T11:56:46.244Z,6276
2016-11-17T11:57:11.948Z,5572
2016-11-17T11:57:37.485Z,5104
2016-11-17T11:58:03.187Z,4648
2016-11-17T11:58:28.707Z,4196
2016-11-17T11:58:54.298Z,3732
2016-11-17T11:59:19.872Z,3328
2016-11-17T11:59:45.438Z,2996
2016-11-17T12:00:10.985Z,2832
2016-11-17T12:00:36.891Z,2984
2016-11-17T12:01:02.300Z,3296
2016-11-17T12:01:27.859Z,3716
2016-11-17T12:01:53.460Z,4272
2016-11-17T12:02:19.009Z,4940
2016-11-17T12:02:44.601Z,5608
2016-11-17T12:03:10.271Z,5696
2016-11-17T12:03:35.908Z,5140
2016-11-17T12:04:01.511Z,4688
2016-11-17T12:04:27.071Z,4680
2016-11-17T12:04:52.716Z,4936
2016-11-17T12:05:18.370Z,5228
2016-11-17T12:05:43.931Z,5588
2016-11-17T12:06:09.559Z,5844
2016-11-17T12:06:35.110Z,5928
2016-11-17T12:07:00.716Z,5844
2016-11-17T12:07:26.370Z,6044
2016-11-17T12:07:51.899Z,6504
2016-11-17T12:08:17.470Z,6916
2016-11-17T12:09:41.363Z,5988
2016-11-17T12:10:06.910Z,5740
2016-11-17T12:10:32.571Z,5572
2016-11-17T12:10:58.119Z,5592
2016-11-17T12:11:23.694Z,5692
2016-11-17T12:11:49.377Z,5772
2016-11-17T12:12:14.992Z,5740
2016-11-17T12:12:40.553Z,5740
2016-11-17T12:13:06.111Z,5776
2016-11-17T12:14:14.456Z,5736
2016-11-17T12:16:21.725Z,5584
2016-11-17T12:16:47.316Z,5556
2016-11-17T12:17:12.898Z,5744
2016-11-17T12:17:38.544Z,5528
2016-11-17T12:18:41.840Z,5348
2016-11-17T12:19:07.389Z,5300
2016-11-17T12:19:33.022Z,5264
2016-11-17T12:19:58.822Z,5388
2016-11-17T12:20:24.379Z,5324
2016-11-17T12:20:50.195Z,5296
2016-11-17T12:21:15.819Z,5324
2016-11-17T12:21:41.381Z,5324
2016-11-17T12:22:06.994Z,5228
2016-11-17T12:22:32.511Z,5076
2016-11-17T12:22:58.074Z,5040
2016-11-17T12:23:23.663Z,4952
2016-11-17T12:23:49.213Z,4700
2016-11-17T12:24:14.776Z,4368
2016-11-17T12:24:40.338Z,4096
2016-11-17T12:25:05.903Z,3972
2016-11-17T12:26:29.663Z,3680
2016-11-17T12:26:55.220Z,3516
2016-11-17T12:27:20.805Z,3336
2016-11-17T12:27:46.370Z,3148
2016-11-17T12:28:12.022Z,3020
2016-11-17T12:28:37.617Z,2908
2016-11-17T12:29:03.194Z,2900
2016-11-17T12:29:28.802Z,2816
2016-11-17T12:29:54.375Z,2752
2016-11-17T12:30:19.934Z,2684
2016-11-17T12:30:45.659Z,2604
2016-11-17T12:31:11.115Z,2520
2016-11-17T12:31:36.713Z,2440
2016-11-17T12:32:02.421Z,2364
2016-11-17T12:32:28.025Z,2268
2016-11-17T12:32:53.611Z,2164
2016-11-17T12:33:20.111Z,2064
2016-11-17T12:33:45.675Z,1976
2016-11-17T12:34:11.234Z,1900
2016-11-17T12:34:36.862Z,1880
2016-11-17T12:35:02.412Z,1920
2016-11-17T12:35:28.048Z,1968
2016-11-17T12:35:53.595Z,2000
2016-11-17T12:36:19.200Z,1992
2016-11-17T12:36:44.768Z,1960
2016-11-17T12:37:10.329Z,1912
2016-11-17T12:37:36.006Z,1848
2016-11-17T12:38:01.555Z,1788
2016-11-17T12:38:27.139Z,1752
2016-11-17T12:38:52.736Z,1728
2016-11-17T12:39:18.345Z,1744
2016-11-17T12:39:44.016Z,1784
2016-11-17T12:40:09.597Z,1836
2016-11-17T12:40:35.183Z,1872
2016-11-17T12:41:00.789Z,1908
2016-11-17T12:41:26.379Z,1944
2016-11-17T12:41:51.999Z,2000
2016-11-17T12:42:17.644Z,2068
2016-11-17T12:42:43.222Z,2132
2016-11-17T12:43:08.871Z,2216
2016-11-17T12:43:34.402Z,2292
2016-11-17T12:43:59.994Z,2352
2016-11-17T12:44:25.562Z,2408
2016-11-17T12:44:51.240Z,2500
2016-11-17T12:45:16.825Z,2608
2016-11-17T12:45:42.406Z,2748
2016-11-17T12:46:08.003Z,2936
2016-11-17T12:46:33.607Z,3216
2016-11-17T12:46:59.171Z,3612
2016-11-17T12:47:24.741Z,4096
2016-11-17T12:47:50.405Z,4580
2016-11-17T12:48:15.997Z,5052
2016-11-17T12:48:41.550Z,5652
2016-11-17T12:49:07.128Z,6292
2016-11-17T12:49:32.792Z,7072
2016-11-17T12:49:58.370Z,8176
2016-11-17T12:50:23.969Z,8640
2016-11-17T12:50:49.618Z,8472
2016-11-17T12:51:15.443Z,8420
2016-11-17T12:51:41.018Z,8052
2016-11-17T12:52:06.592Z,7864
2016-11-17T12:52:32.159Z,7580
2016-11-17T12:52:57.858Z,7372
2016-11-17T12:53:23.467Z,7172
2016-11-17T12:53:49.050Z,7008
2016-11-17T12:54:14.605Z,6816
2016-11-17T12:54:40.195Z,6664
2016-11-17T12:55:05.760Z,6568
2016-11-17T12:55:31.350Z,6508
2016-11-17T12:55:56.924Z,6416
2016-11-17T12:56:22.512Z,6112
2016-11-17T12:56:48.086Z,5492
2016-11-17T12:57:13.644Z,4680
2016-11-17T12:57:39.237Z,4048
2016-11-17T12:58:04.833Z,3784
2016-11-17T12:58:30.745Z,3648
2016-11-17T12:58:56.092Z,3568
2016-11-17T12:59:21.659Z,3532
2016-11-17T12:59:47.230Z,3516
2016-11-17T13:00:12.779Z,3488
2016-11-17T13:00:38.430Z,3424
2016-11-17T13:01:04.004Z,3360
2016-11-17T13:01:29.686Z,3292
2016-11-17T13:01:55.261Z,3220
2016-11-17T13:02:20.882Z,3160
2016-11-17T13:02:46.445Z,3064
2016-11-17T13:03:12.033Z,3012
2016-11-17T13:03:37.670Z,2992
2016-11-17T13:04:03.270Z,3012
2016-11-17T13:04:28.871Z,3056
2016-11-17T13:05:37.350Z,3252
2016-11-17T13:06:02.919Z,3296
2016-11-17T13:06:28.564Z,3372
2016-11-17T13:06:54.105Z,3428
2016-11-17T13:07:19.686Z,3432
2016-11-17T13:07:45.270Z,3432
2016-11-17T13:08:10.960Z,3396
2016-11-17T13:08:36.552Z,3392
2016-11-17T13:09:02.078Z,3428
2016-11-17T13:09:27.661Z,3516
2016-11-17T13:09:53.312Z,3556
2016-11-17T13:10:18.886Z,3600
2016-11-17T13:10:44.568Z,3628
2016-11-17T13:11:10.131Z,3704
2016-11-17T13:11:35.700Z,3748
2016-11-17T13:12:01.275Z,3832
2016-11-17T13:12:26.868Z,4056
2016-11-17T13:12:52.424Z,4216
2016-11-17T13:13:17.983Z,4416
2016-11-17T13:13:43.573Z,4524
2016-11-17T13:14:09.131Z,4408
2016-11-17T13:14:34.734Z,4304
2016-11-17T13:15:00.281Z,4308
2016-11-17T13:15:25.867Z,4372
2016-11-17T13:15:51.523Z,4348
2016-11-17T13:16:17.166Z,4212
2016-11-17T13:16:42.725Z,3944
2016-11-17T13:17:08.470Z,3760
2016-11-17T13:17:34.041Z,3660
2016-11-17T13:17:59.730Z,3544
2016-11-17T13:18:25.280Z,3432
2016-11-17T13:18:50.849Z,3332
2016-11-17T13:19:16.411Z,3264
2016-11-17T13:19:42.003Z,3240
2016-11-17T13:20:07.609Z,3352
2016-11-17T13:20:33.180Z,3536
2016-11-17T13:20:58.824Z,3756
2016-11-17T13:21:24.390Z,3992
2016-11-17T13:21:49.981Z,4280
2016-11-17T13:22:15.560Z,4576
2016-11-17T13:22:41.105Z,4900
2016-11-17T13:23:06.796Z,5144
2016-11-17T13:23:32.370Z,5388
2016-11-17T13:24:35.641Z,5780
2016-11-17T13:26:42.914Z,4268
2016-11-17T13:27:08.464Z,4144
2016-11-17T13:27:34.067Z,4056
2016-11-17T13:27:59.617Z,4104
2016-11-17T13:28:25.187Z,4196
2016-11-17T13:28:50.843Z,4388
2016-11-17T13:29:16.598Z,4568
2016-11-17T13:29:42.081Z,4736
2016-11-17T13:30:07.752Z,4836
2016-11-17T13:30:33.316Z,4876
2016-11-17T13:30:58.886Z,4836
2016-11-17T13:31:24.448Z,4820
2016-11-17T13:31:50.023Z,4912
2016-11-17T13:32:15.641Z,5080
2016-11-17T13:32:41.218Z,5220
2016-11-17T13:33:06.787Z,5144
2016-11-17T13:33:32.358Z,5656
2016-11-17T13:33:57.982Z,5324
2016-11-17T13:34:23.526Z,5288
2016-11-17T13:34:49.160Z,5356
2016-11-17T13:35:14.648Z,5076
2016-11-17T13:35:40.261Z,4816
2016-11-17T13:36:05.854Z,4564
2016-11-17T13:36:31.431Z,4300
2016-11-17T13:36:57.010Z,4048
2016-11-17T13:37:22.669Z,3840
2016-11-17T13:37:48.258Z,3744
2016-11-17T13:38:13.920Z,3680
2016-11-17T13:38:39.464Z,3596
2016-11-17T13:39:05.069Z,3520
2016-11-17T13:39:30.634Z,3564
2016-11-17T13:39:56.167Z,3756
2016-11-17T13:40:21.864Z,4064
2016-11-17T13:40:47.403Z,4120
2016-11-17T13:41:12.949Z,3972
2016-11-17T13:41:38.514Z,3800
2016-11-17T13:42:04.109Z,4052
2016-11-17T13:42:29.677Z,3592
2016-11-17T13:42:55.288Z,3888
2016-11-17T13:43:21.496Z,3840
2016-11-17T13:43:47.070Z,3528
2016-11-17T13:44:12.736Z,3344
2016-11-17T13:44:38.389Z,2576
2016-11-17T13:45:04.024Z,2780
2016-11-17T13:45:29.563Z,2684
2016-11-17T13:45:55.179Z,2632
2016-11-17T13:46:20.746Z,2628
2016-11-17T13:46:46.319Z,2636
2016-11-17T13:47:11.896Z,2676
2016-11-17T13:47:37.460Z,2676
2016-11-17T13:48:03.020Z,2716
2016-11-17T13:48:28.625Z,2800
2016-11-17T13:48:54.249Z,2772
2016-11-17T13:49:19.781Z,2644
2016-11-17T13:49:45.443Z,2480
2016-11-17T13:50:11.031Z,2340
2016-11-17T13:51:29.666Z,2208
2016-11-17T13:51:55.206Z,2204
2016-11-17T13:52:20.801Z,2176
2016-11-17T13:52:46.370Z,2128
2016-11-17T13:53:11.929Z,2184
2016-11-17T13:53:37.598Z,2264
2016-11-17T13:54:03.166Z,2328
2016-11-17T13:54:28.755Z,2348
2016-11-17T13:54:54.341Z,2356
2016-11-17T13:55:19.920Z,2392
2016-11-17T13:55:45.509Z,2408
2016-11-17T13:56:11.091Z,2440
2016-11-17T13:56:36.623Z,2496
2016-11-17T13:57:02.188Z,2568
2016-11-17T13:57:27.810Z,2668
2016-11-17T13:57:53.381Z,2672
2016-11-17T13:58:18.942Z,2700
2016-11-17T13:58:44.626Z,2792
2016-11-17T13:59:10.256Z,2792
2016-11-17T13:59:35.821Z,3264
2016-11-17T14:00:01.506Z,3376
2016-11-17T14:00:27.140Z,3332
2016-11-17T14:00:52.703Z,3316
2016-11-17T14:01:18.271Z,3760
2016-11-17T14:01:44.063Z,3588
2016-11-17T14:02:09.709Z,3896
2016-11-17T14:02:35.303Z,3776
2016-11-17T14:03:00.852Z,3528
2016-11-17T14:03:26.423Z,3500
2016-11-17T14:03:51.988Z,3500
2016-11-17T14:04:17.585Z,3456
2016-11-17T14:04:43.280Z,3480
2016-11-17T14:05:08.837Z,3684
2016-11-17T14:05:34.423Z,4108
2016-11-17T14:05:59.976Z,4360
2016-11-17T14:06:25.581Z,4508
2016-11-17T14:06:51.141Z,4284
2016-11-17T14:07:16.750Z,4176
2016-11-17T14:07:42.316Z,4176
2016-11-17T14:08:07.871Z,4352
2016-11-17T14:08:33.459Z,4232
2016-11-17T14:08:59.031Z,4024
2016-11-17T14:09:24.609Z,3924
2016-11-17T14:09:50.187Z,4004
2016-11-17T14:10:15.699Z,4152
2016-11-17T14:10:41.271Z,4208
2016-11-17T14:11:06.965Z,4108
2016-11-17T14:11:32.532Z,3892
2016-11-17T14:11:58.086Z,3844
2016-11-17T14:12:23.652Z,3576
2016-11-17T14:12:49.277Z,3420
2016-11-17T14:13:14.856Z,3308
2016-11-17T14:13:40.436Z,3356
2016-11-17T14:14:06.090Z,3516
2016-11-17T14:14:31.795Z,3532
2016-11-17T14:14:57.245Z,3360
2016-11-17T14:15:23.086Z,3288
2016-11-17T14:15:48.461Z,3268
2016-11-17T14:16:14.079Z,3264
2016-11-17T14:16:39.722Z,3272
2016-11-17T14:17:05.422Z,3272
2016-11-17T14:17:31.118Z,3260
2016-11-17T14:17:56.789Z,3364
2016-11-17T14:18:22.363Z,2996
2016-11-17T14:18:47.903Z,3052
2016-11-17T14:19:13.572Z,3228
2016-11-17T14:19:39.125Z,3316
2016-11-17T14:20:04.758Z,3484
2016-11-17T14:20:30.346Z,3360
2016-11-17T14:20:55.992Z,3268
2016-11-17T14:21:21.580Z,3232
2016-11-17T14:21:47.128Z,3184
2016-11-17T14:22:12.716Z,3072
2016-11-17T14:22:38.355Z,2936
2016-11-17T14:23:03.970Z,2720
2016-11-17T14:23:29.628Z,2392
2016-11-17T14:23:55.163Z,2048
2016-11-17T14:24:20.756Z,1744
2016-11-17T14:24:46.323Z,1564
2016-11-17T14:25:11.914Z,1464
2016-11-17T14:25:37.438Z,1412
2016-11-17T14:26:03.144Z,1368
2016-11-17T14:26:28.769Z,1340
2016-11-17T14:26:54.371Z,1316
2016-11-17T14:27:19.980Z,1300
2016-11-17T14:27:45.552Z,1296
2016-11-17T14:28:11.132Z,1292
2016-11-17T14:28:36.789Z,1304
2016-11-17T14:29:02.341Z,1368
2016-11-17T14:29:27.962Z,1444
2016-11-17T14:29:53.550Z,1576
2016-11-17T14:30:19.428Z,1740
2016-11-17T14:30:44.804Z,1884
2016-11-17T14:31:10.411Z,2024
2016-11-17T14:31:35.979Z,2072
2016-11-17T14:32:01.535Z,2224
2016-11-17T14:32:27.131Z,2124
2016-11-17T14:32:52.757Z,2256
2016-11-17T14:33:18.366Z,2232
2016-11-17T14:33:43.938Z,2232
2016-11-17T14:34:09.453Z,2112
2016-11-17T14:36:00.613Z,1928
2016-11-17T14:36:26.195Z,2004
2016-11-17T14:36:51.782Z,2168
2016-11-17T14:37:17.378Z,2224
2016-11-17T14:37:42.950Z,2284
2016-11-17T14:38:08.520Z,2276
2016-11-17T14:38:34.095Z,2268
2016-11-17T14:38:59.703Z,2260
2016-11-17T14:39:25.274Z,2272
2016-11-17T14:39:50.853Z,2280
2016-11-17T14:40:16.435Z,2124
2016-11-17T14:40:42.079Z,1668
2016-11-17T14:41:07.679Z,1512
2016-11-17T14:41:33.242Z,1520
2016-11-17T14:41:58.859Z,1688
2016-11-17T14:42:24.451Z,1980
2016-11-17T14:42:50.148Z,2596
2016-11-17T14:43:15.716Z,2632
2016-11-17T14:43:41.305Z,2236
2016-11-17T14:44:06.847Z,1656
2016-11-17T14:44:32.445Z,1676
2016-11-17T14:44:58.142Z,1820
2016-11-17T14:45:24.392Z,1932
2016-11-17T14:45:50.092Z,1632
2016-11-17T14:46:15.675Z,1428
2016-11-17T14:46:42.202Z,1420
2016-11-17T14:47:07.851Z,1200
2016-11-17T14:47:33.394Z,1152
2016-11-17T14:47:58.970Z,1148
2016-11-17T14:48:24.519Z,1144
2016-11-17T14:48:50.064Z,1136
2016-11-17T14:49:15.663Z,1120
2016-11-17T14:49:41.304Z,1096
2016-11-17T14:50:06.859Z,1044
2016-11-17T14:50:32.408Z,996
2016-11-17T14:50:57.981Z,952
2016-11-17T14:51:23.544Z,932
2016-11-17T14:51:49.120Z,932
2016-11-17T14:52:14.686Z,920
2016-11-17T14:52:40.271Z,912
2016-11-17T14:53:05.853Z,904
2016-11-17T14:53:32.019Z,892
2016-11-17T14:53:57.579Z,868
2016-11-17T14:54:23.141Z,848
2016-11-17T14:54:48.708Z,832
2016-11-17T14:55:14.325Z,820
2016-11-17T14:55:40.119Z,812
2016-11-17T14:56:05.704Z,800
2016-11-17T14:56:31.333Z,792
2016-11-17T14:56:56.943Z,784
2016-11-17T14:57:22.448Z,776
2016-11-17T14:57:48.053Z,768
2016-11-17T14:58:13.608Z,756
2016-11-17T14:58:39.205Z,748
2016-11-17T14:59:04.741Z,740
2016-11-17T14:59:30.387Z,728
2016-11-17T14:59:55.954Z,716
2016-11-17T15:00:21.521Z,708
2016-11-17T15:00:47.111Z,712
2016-11-17T15:01:12.747Z,748
2016-11-17T15:01:38.310Z,784
2016-11-17T15:02:03.859Z,820
2016-11-17T15:02:29.557Z,828
2016-11-17T15:02:55.179Z,780
2016-11-17T15:03:20.734Z,704
2016-11-17T15:03:46.311Z,644
2016-11-17T15:04:11.878Z,604
2016-11-17T15:04:37.514Z,576
2016-11-17T15:05:03.101Z,564
2016-11-17T15:05:28.751Z,548
2016-11-17T15:05:55.320Z,536
2016-11-17T15:06:20.903Z,524
2016-11-17T15:06:46.520Z,512
2016-11-17T15:07:12.074Z,496
2016-11-17T15:07:37.663Z,480
2016-11-17T15:08:03.270Z,464
2016-11-17T15:08:28.827Z,440
2016-11-17T15:08:54.552Z,428
2016-11-17T15:09:20.124Z,412
2016-11-17T15:09:45.694Z,396
2016-11-17T15:10:11.324Z,388
2016-11-17T15:10:36.864Z,384
2016-11-17T15:11:02.477Z,372
2016-11-17T15:11:28.018Z,356
2016-11-17T15:11:53.743Z,344
2016-11-17T15:12:19.384Z,360
2016-11-17T15:12:44.964Z,380
2016-11-17T15:13:10.597Z,384
2016-11-17T15:13:36.235Z,380
2016-11-17T15:14:01.780Z,356
2016-11-17T15:14:27.374Z,344
2016-11-17T15:14:52.939Z,336
2016-11-17T15:15:18.490Z,328
2016-11-17T15:15:44.088Z,324
2016-11-17T15:16:09.758Z,316
2016-11-17T15:16:35.335Z,312
2016-11-17T15:17:00.919Z,304
2016-11-17T15:17:26.567Z,296
2016-11-17T15:17:52.132Z,288
2016-11-17T15:18:17.783Z,284
2016-11-17T15:18:43.370Z,276
2016-11-17T15:19:08.999Z,272
2016-11-17T15:19:34.639Z,260
2016-11-17T15:20:00.231Z,252
2016-11-17T15:20:25.826Z,248
2016-11-17T15:20:51.384Z,236
2016-11-17T15:21:16.928Z,232
2016-11-17T15:21:42.570Z,228
2016-11-17T15:22:08.156Z,220
2016-11-17T15:22:33.731Z,212
2016-11-17T15:22:59.401Z,208
2016-11-17T15:23:24.985Z,204
2016-11-17T15:23:50.552Z,196
2016-11-17T15:24:16.194Z,196
2016-11-17T15:24:41.816Z,188
2016-11-17T15:25:07.448Z,184
2016-11-17T15:25:33.040Z,180
2016-11-17T15:26:36.277Z,168
2016-11-17T15:29:26.564Z,124
2016-11-17T15:30:00.530Z,116
2016-11-17T15:30:26.117Z,108
2016-11-17T15:30:51.678Z,104
2016-11-17T15:31:17.251Z,100
2016-11-17T15:31:42.848Z,96
2016-11-17T15:32:08.431Z,92
2016-11-17T15:32:34.063Z,88
2016-11-17T15:32:59.677Z,84
2016-11-17T15:33:25.260Z,80
2016-11-17T15:33:50.819Z,76
2016-11-17T15:34:16.358Z,72
2016-11-17T15:34:41.920Z,72
2016-11-17T15:35:07.461Z,68
2016-11-17T15:35:33.124Z,64
2016-11-17T15:35:58.686Z,60
2016-11-17T15:36:24.221Z,56
2016-11-17T15:36:49.786Z,52
2016-11-17T15:37:15.345Z,52
2016-11-17T15:37:40.938Z,48
2016-11-17T15:38:06.480Z,48
2016-11-17T15:38:32.115Z,44
2016-11-17T15:38:57.681Z,40
2016-11-17T15:39:23.222Z,40
2016-11-17T15:39:48.816Z,36
2016-11-17T15:40:14.377Z,40
2016-11-17T15:40:40.023Z,36
2016-11-17T15:41:05.571Z,36
2016-11-17T15:41:31.207Z,32
2016-11-17T15:41:56.800Z,32
2016-11-17T15:42:22.359Z,28
2016-11-17T15:42:47.946Z,28
2016-11-17T15:43:13.533Z,24
2016-11-17T15:43:39.155Z,24
2016-11-17T15:44:04.750Z,24
2016-11-17T15:44:30.302Z,24
2016-11-17T15:44:55.872Z,20
2016-11-17T15:45:21.429Z,24
2016-11-17T15:45:47.120Z,20
2016-11-17T15:46:12.816Z,20
2016-11-17T15:46:38.400Z,20
2016-11-17T15:47:03.969Z,16
2016-11-17T15:47:29.587Z,16
2016-11-17T15:47:55.156Z,16
2016-11-17T15:48:20.742Z,16
2016-11-17T15:48:46.272Z,12
2016-11-17T15:49:11.946Z,16
2016-11-17T15:49:37.526Z,12
2016-11-17T15:50:03.162Z,12
2016-11-17T15:50:28.709Z,12
2016-11-17T15:50:54.301Z,12
2016-11-17T15:51:19.841Z,12
2016-11-17T15:51:45.406Z,8
2016-11-17T15:52:11.099Z,8
2016-11-17T15:52:36.643Z,8
2016-11-17T15:53:39.935Z,8
2016-11-17T15:54:05.505Z,4
2016-11-17T15:54:31.107Z,4
2016-11-17T15:54:56.649Z,4
2016-11-17T15:55:22.251Z,8
2016-11-17T15:55:47.803Z,4
2016-11-17T15:56:13.417Z,4
2016-11-17T15:56:39.033Z,4
2016-11-17T15:57:04.590Z,4
2016-11-17T15:57:30.199Z,0
2016-11-17T15:57:55.747Z,0
2016-11-17T15:58:21.428Z,4
2016-11-17T15:58:47.033Z,4
2016-11-17T15:59:12.648Z,4
2016-11-17T15:59:38.279Z,4
2016-11-17T16:00:03.857Z,4
2016-11-17T16:00:29.470Z,4
2016-11-17T16:00:55.168Z,0
2016-11-17T16:01:20.745Z,0
2016-11-17T16:01:46.317Z,0
2016-11-17T16:02:11.879Z,0
2016-11-17T16:02:37.454Z,0
2016-11-17T16:03:03.047Z,0
2016-11-17T16:03:28.623Z,0
2016-11-17T16:03:54.224Z,0
2016-11-17T16:04:19.772Z,0
2016-11-17T16:04:45.376Z,0
2016-11-17T16:05:11.052Z,0
2016-11-17T16:05:36.603Z,0
2016-11-17T16:06:02.240Z,0
2016-11-17T16:06:27.814Z,0
2016-11-17T16:06:53.442Z,0
2016-11-17T16:07:19.110Z,0
2016-11-17T16:07:44.666Z,0
2016-11-17T16:08:10.213Z,0
2016-11-17T16:08:35.787Z,0
2016-11-17T16:09:01.430Z,0
2016-11-17T16:09:26.997Z,0
2016-11-17T16:09:52.579Z,0
2016-11-17T16:10:18.239Z,0
2016-11-17T16:10:43.799Z,0
2016-11-17T16:11:09.375Z,0
2016-11-17T16:11:34.959Z,0
2016-11-17T16:12:00.693Z,0
2016-11-17T16:12:26.258Z,0
2016-11-17T16:12:51.825Z,0
2016-11-17T16:13:17.363Z,0
2016-11-17T16:13:42.928Z,0
2016-11-17T16:14:08.547Z,0
2016-11-17T16:14:34.287Z,0
2016-11-17T16:14:59.858Z,0
2016-11-17T16:15:25.467Z,0
2016-11-17T16:15:51.039Z,0